sensor_id;sensor_type;location;lat;lon;timestamp;pressure;altitude;pressure_sealevel;temperature;humidity
47670;BME280;33408;52.062;11.722;2023-05-14T00:00:50;101613.09;;;10.90;100.00
47670;BME280;33408;52.062;11.722;2023-05-14T00:03:17;101603.53;;;11.01;100.00
47670;BME280;33408;52.062;11.722;2023-05-14T00:05:46;101608.13;;;10.53;100.00
47670;BME280;33408;52.062;11.722;2023-05-14T00:08:13;101605.41;;;10.77;100.00
47670;BME280;33408;52.062;11.722;2023-05-14T00:10:40;101601.88;;;10.88;100.00
47670;BME280;33408;52.062;11.722;2023-05-14T00:13:06;101601.97;;;10.75;100.00
47670;BME280;33408;52.062;11.722;2023-05-14T00:15:33;101601.91;;;10.82;100.00
47670;BME280;33408;52.062;11.722;2023-05-14T00:17:59;101602.00;;;10.69;100.00
47670;BME280;33408;52.062;11.722;2023-05-14T00:20:26;101596.84;;;10.58;100.00
47670;BME280;33408;52.062;11.722;2023-05-14T00:22:54;101593.47;;;10.38;100.00
47670;BME280;33408;52.062;11.722;2023-05-14T00:25:20;101596.94;;;10.35;100.00
47670;BME280;33408;52.062;11.722;2023-05-14T00:27:47;101591.78;;;10.20;100.00
47670;BME280;33408;52.062;11.722;2023-05-14T00:30:14;101597.78;;;10.30;100.00
47670;BME280;33408;52.062;11.722;2023-05-14T00:32:40;101586.59;;;10.18;100.00
47670;BME280;33408;52.062;11.722;2023-05-14T00:35:07;101588.31;;;10.19;100.00
47670;BME280;33408;52.062;11.722;2023-05-14T00:37:34;101596.09;;;10.18;100.00
47670;BME280;33408;52.062;11.722;2023-05-14T00:40:03;101588.31;;;10.26;100.00
47670;BME280;33408;52.062;11.722;2023-05-14T00:42:31;101590.00;;;10.42;100.00
47670;BME280;33408;52.062;11.722;2023-05-14T00:44:58;101588.28;;;10.35;100.00
47670;BME280;33408;52.062;11.722;2023-05-14T00:47:25;101586.59;;;10.21;100.00
47670;BME280;33408;52.062;11.722;2023-05-14T00:49:52;101590.94;;;10.02;100.00
47670;BME280;33408;52.062;11.722;2023-05-14T00:52:19;101584.09;;;9.84;100.00
47670;BME280;33408;52.062;11.722;2023-05-14T00:54:47;101593.59;;;9.81;100.00
47670;BME280;33408;52.062;11.722;2023-05-14T00:57:18;101589.31;;;9.61;100.00
47670;BME280;33408;52.062;11.722;2023-05-14T00:59:46;101585.84;;;9.18;100.00
47670;BME280;33408;52.062;11.722;2023-05-14T01:02:12;101585.81;;;9.22;100.00
47670;BME280;33408;52.062;11.722;2023-05-14T01:04:39;101591.03;;;9.36;100.00
47670;BME280;33408;52.062;11.722;2023-05-14T01:07:11;101588.44;;;9.42;100.00
47670;BME280;33408;52.062;11.722;2023-05-14T01:09:46;101581.50;;;9.75;100.00
47670;BME280;33408;52.062;11.722;2023-05-14T01:12:22;101586.69;;;9.78;100.00
47670;BME280;33408;52.062;11.722;2023-05-14T01:14:56;101581.50;;;9.88;100.00
47670;BME280;33408;52.062;11.722;2023-05-14T01:17:27;101578.91;;;9.74;100.00
47670;BME280;33408;52.062;11.722;2023-05-14T01:19:54;101573.72;;;9.83;100.00
47670;BME280;33408;52.062;11.722;2023-05-14T01:22:22;101581.47;;;9.98;100.00
47670;BME280;33408;52.062;11.722;2023-05-14T01:24:48;101582.31;;;10.07;100.00
47670;BME280;33408;52.062;11.722;2023-05-14T01:27:20;101584.06;;;10.00;100.00
47670;BME280;33408;52.062;11.722;2023-05-14T01:29:56;101579.75;;;9.90;100.00
47670;BME280;33408;52.062;11.722;2023-05-14T01:32:24;101576.25;;;10.12;100.00
47670;BME280;33408;52.062;11.722;2023-05-14T01:34:52;101580.56;;;10.13;100.00
47670;BME280;33408;52.062;11.722;2023-05-14T01:37:23;101571.06;;;10.04;100.00
47670;BME280;33408;52.062;11.722;2023-05-14T01:39:50;101576.19;;;10.29;100.00
47670;BME280;33408;52.062;11.722;2023-05-14T01:42:17;101571.88;;;10.42;100.00
47670;BME280;33408;52.062;11.722;2023-05-14T01:44:44;101573.63;;;10.34;100.00
47670;BME280;33408;52.062;11.722;2023-05-14T01:47:10;101568.38;;;10.43;100.00
47670;BME280;33408;52.062;11.722;2023-05-14T01:49:37;101573.53;;;10.49;100.00
47670;BME280;33408;52.062;11.722;2023-05-14T01:52:04;101569.25;;;10.51;100.00
47670;BME280;33408;52.062;11.722;2023-05-14T01:54:33;101568.34;;;10.54;100.00
47670;BME280;33408;52.062;11.722;2023-05-14T01:56:59;101571.91;;;10.20;100.00
47670;BME280;33408;52.062;11.722;2023-05-14T01:59:26;101574.53;;;10.16;100.00
47670;BME280;33408;52.062;11.722;2023-05-14T02:01:54;101565.84;;;10.32;100.00
47670;BME280;33408;52.062;11.722;2023-05-14T02:04:20;101571.88;;;10.22;100.00
47670;BME280;33408;52.062;11.722;2023-05-14T02:06:47;101571.88;;;10.30;100.00
47670;BME280;33408;52.062;11.722;2023-05-14T02:09:13;101576.13;;;10.55;100.00
47670;BME280;33408;52.062;11.722;2023-05-14T02:11:41;101566.56;;;10.62;100.00
47670;BME280;33408;52.062;11.722;2023-05-14T02:14:08;101564.78;;;10.72;100.00
47670;BME280;33408;52.062;11.722;2023-05-14T02:16:35;101559.59;;;10.72;100.00
47670;BME280;33408;52.062;11.722;2023-05-14T02:19:01;101558.78;;;10.64;100.00
47670;BME280;33408;52.062;11.722;2023-05-14T02:21:28;101563.19;;;10.43;100.00
47670;BME280;33408;52.062;11.722;2023-05-14T02:23:55;101561.34;;;10.68;100.00
47670;BME280;33408;52.062;11.722;2023-05-14T02:26:21;101563.13;;;10.60;100.00
47670;BME280;33408;52.062;11.722;2023-05-14T02:28:49;101554.50;;;10.56;100.00
47670;BME280;33408;52.062;11.722;2023-05-14T02:31:16;101567.56;;;10.35;100.00
47670;BME280;33408;52.062;11.722;2023-05-14T02:33:43;101555.53;;;10.11;100.00
47670;BME280;33408;52.062;11.722;2023-05-14T02:36:10;101555.56;;;10.00;100.00
47670;BME280;33408;52.062;11.722;2023-05-14T02:38:36;101559.84;;;10.12;100.00
47670;BME280;33408;52.062;11.722;2023-05-14T02:41:03;101552.94;;;10.11;100.00
47670;BME280;33408;52.062;11.722;2023-05-14T02:43:29;101552.84;;;10.42;100.00
47670;BME280;33408;52.062;11.722;2023-05-14T02:45:57;101553.69;;;10.48;100.00
47670;BME280;33408;52.062;11.722;2023-05-14T02:48:24;101547.63;;;10.46;100.00
47670;BME280;33408;52.062;11.722;2023-05-14T02:50:50;101543.34;;;10.45;100.00
47670;BME280;33408;52.062;11.722;2023-05-14T02:53:17;101545.97;;;10.34;100.00
47670;BME280;33408;52.062;11.722;2023-05-14T02:55:44;101546.81;;;10.30;100.00
47670;BME280;33408;52.062;11.722;2023-05-14T02:58:10;101543.38;;;10.27;100.00
47670;BME280;33408;52.062;11.722;2023-05-14T03:00:37;101539.09;;;10.21;100.00
47670;BME280;33408;52.062;11.722;2023-05-14T03:03:05;101541.69;;;10.24;100.00
47670;BME280;33408;52.062;11.722;2023-05-14T03:05:31;101546.03;;;10.14;100.00
47670;BME280;33408;52.062;11.722;2023-05-14T03:07:58;101539.09;;;10.18;100.00
47670;BME280;33408;52.062;11.722;2023-05-14T03:10:25;101541.59;;;10.44;100.00
47670;BME280;33408;52.062;11.722;2023-05-14T03:12:51;101540.75;;;10.47;100.00
47670;BME280;33408;52.062;11.722;2023-05-14T03:15:18;101536.38;;;10.56;100.00
47670;BME280;33408;52.062;11.722;2023-05-14T03:17:45;101531.00;;;10.87;100.00
47670;BME280;33408;52.062;11.722;2023-05-14T03:20:13;101526.56;;;11.02;100.00
47670;BME280;33408;52.062;11.722;2023-05-14T03:22:39;101527.56;;;10.84;100.00
47670;BME280;33408;52.062;11.722;2023-05-14T03:25:06;101529.25;;;10.86;100.00
47670;BME280;33408;52.062;11.722;2023-05-14T03:27:33;101522.19;;;11.07;100.00
47670;BME280;33408;52.062;11.722;2023-05-14T03:30:00;101528.38;;;10.89;100.00
47670;BME280;33408;52.062;11.722;2023-05-14T03:32:27;101522.56;;;10.51;100.00
47670;BME280;33408;52.062;11.722;2023-05-14T03:34:53;101525.06;;;10.65;100.00
47670;BME280;33408;52.062;11.722;2023-05-14T03:37:21;101526.78;;;10.68;100.00
47670;BME280;33408;52.062;11.722;2023-05-14T03:39:48;101517.03;;;11.04;100.00
47670;BME280;33408;52.062;11.722;2023-05-14T03:42:14;101524.25;;;10.55;100.00
47670;BME280;33408;52.062;11.722;2023-05-14T03:44:41;101522.47;;;10.68;100.00
47670;BME280;33408;52.062;11.722;2023-05-14T03:47:08;101518.66;;;11.16;100.00
47670;BME280;33408;52.062;11.722;2023-05-14T03:49:34;101515.69;;;11.57;100.00
47670;BME280;33408;52.062;11.722;2023-05-14T03:52:01;101517.34;;;11.66;100.00
47670;BME280;33408;52.062;11.722;2023-05-14T03:54:29;101515.22;;;12.02;100.00
47670;BME280;33408;52.062;11.722;2023-05-14T03:56:55;101510.22;;;11.85;100.00
47670;BME280;33408;52.062;11.722;2023-05-14T03:59:22;101511.16;;;11.78;100.00
47670;BME280;33408;52.062;11.722;2023-05-14T04:01:49;101512.84;;;11.82;100.00
47670;BME280;33408;52.062;11.722;2023-05-14T04:04:15;101508.59;;;11.73;100.00
47670;BME280;33408;52.062;11.722;2023-05-14T04:06:42;101516.56;;;11.58;100.00
47670;BME280;33408;52.062;11.722;2023-05-14T04:09:09;101510.63;;;11.46;100.00
47670;BME280;33408;52.062;11.722;2023-05-14T04:11:37;101505.50;;;11.37;100.00
47670;BME280;33408;52.062;11.722;2023-05-14T04:14:04;101514.97;;;11.41;100.00
47670;BME280;33408;52.062;11.722;2023-05-14T04:16:30;101513.28;;;11.39;100.00
47670;BME280;33408;52.062;11.722;2023-05-14T04:18:57;101516.69;;;11.44;100.00
47670;BME280;33408;52.062;11.722;2023-05-14T04:21:24;101516.69;;;11.44;100.00
47670;BME280;33408;52.062;11.722;2023-05-14T04:23:50;101507.13;;;11.47;100.00
47670;BME280;33408;52.062;11.722;2023-05-14T04:26:17;101514.03;;;11.48;100.00
47670;BME280;33408;52.062;11.722;2023-05-14T04:28:45;101514.81;;;11.58;100.00
47670;BME280;33408;52.062;11.722;2023-05-14T04:31:11;101513.75;;;11.76;100.00
47670;BME280;33408;52.062;11.722;2023-05-14T04:33:38;101516.22;;;11.89;100.00
47670;BME280;33408;52.062;11.722;2023-05-14T04:36:05;101517.09;;;11.88;100.00
47670;BME280;33408;52.062;11.722;2023-05-14T04:38:31;101511.72;;;12.06;100.00
47670;BME280;33408;52.062;11.722;2023-05-14T04:40:58;101515.19;;;12.05;100.00
47670;BME280;33408;52.062;11.722;2023-05-14T04:43:25;101507.50;;;11.97;100.00
47670;BME280;33408;52.062;11.722;2023-05-14T04:45:52;101504.78;;;12.08;100.00
47670;BME280;33408;52.062;11.722;2023-05-14T04:48:19;101515.19;;;12.07;100.00
47670;BME280;33408;52.062;11.722;2023-05-14T04:50:46;101505.50;;;12.19;100.00
47670;BME280;33408;52.062;11.722;2023-05-14T04:53:12;101510.72;;;12.18;100.00
47670;BME280;33408;52.062;11.722;2023-05-14T04:55:39;101507.97;;;12.30;100.00
47670;BME280;33408;52.062;11.722;2023-05-14T04:58:05;101508.75;;;12.35;100.00
47670;BME280;33408;52.062;11.722;2023-05-14T05:00:32;101495.00;;;12.27;100.00
47670;BME280;33408;52.062;11.722;2023-05-14T05:03:00;101507.00;;;12.36;100.00
47670;BME280;33408;52.062;11.722;2023-05-14T05:05:27;101501.72;;;12.42;100.00
47670;BME280;33408;52.062;11.722;2023-05-14T05:07:54;101501.47;;;12.61;100.00
47670;BME280;33408;52.062;11.722;2023-05-14T05:10:20;101502.09;;;12.76;100.00
47670;BME280;33408;52.062;11.722;2023-05-14T05:12:47;101501.25;;;12.74;100.00
47670;BME280;33408;52.062;11.722;2023-05-14T05:15:13;101496.00;;;12.79;100.00
47670;BME280;33408;52.062;11.722;2023-05-14T05:17:40;101501.72;;;12.44;100.00
47670;BME280;33408;52.062;11.722;2023-05-14T05:20:09;101499.59;;;12.70;100.00
47670;BME280;33408;52.062;11.722;2023-05-14T05:22:36;101494.94;;;12.89;100.00
47670;BME280;33408;52.062;11.722;2023-05-14T05:25:03;101494.16;;;12.84;100.00
47670;BME280;33408;52.062;11.722;2023-05-14T05:27:30;101493.28;;;12.87;100.00
47670;BME280;33408;52.062;11.722;2023-05-14T05:29:57;101503.03;;;12.72;100.00
47670;BME280;33408;52.062;11.722;2023-05-14T05:32:23;101499.25;;;12.93;100.00
47670;BME280;33408;52.062;11.722;2023-05-14T05:34:50;101495.28;;;12.68;100.00
47670;BME280;33408;52.062;11.722;2023-05-14T05:37:18;101492.50;;;12.80;100.00
47670;BME280;33408;52.062;11.722;2023-05-14T05:39:45;101487.78;;;13.04;100.00
47670;BME280;33408;52.062;11.722;2023-05-14T05:42:12;101487.63;;;13.13;100.00
47670;BME280;33408;52.062;11.722;2023-05-14T05:44:39;101483.06;;;13.26;100.00
47670;BME280;33408;52.062;11.722;2023-05-14T05:47:05;101473.38;;;13.36;100.00
47670;BME280;33408;52.062;11.722;2023-05-14T05:49:32;101484.88;;;13.22;100.00
47670;BME280;33408;52.062;11.722;2023-05-14T05:52:01;101480.19;;;13.44;100.00
47670;BME280;33408;52.062;11.722;2023-05-14T05:54:29;101481.97;;;13.41;100.00
47670;BME280;33408;52.062;11.722;2023-05-14T05:56:57;101481.09;;;13.42;100.00
47670;BME280;33408;52.062;11.722;2023-05-14T05:59:24;101487.97;;;13.91;100.00
47670;BME280;33408;52.062;11.722;2023-05-14T06:01:50;101473.94;;;13.97;100.00
47670;BME280;33408;52.062;11.722;2023-05-14T06:04:17;101484.63;;;13.38;100.00
47670;BME280;33408;52.062;11.722;2023-05-14T06:06:44;101479.44;;;13.36;100.00
47670;BME280;33408;52.062;11.722;2023-05-14T06:09:11;101485.06;;;13.61;100.00
47670;BME280;33408;52.062;11.722;2023-05-14T06:11:39;101486.38;;;13.82;100.00
47670;BME280;33408;52.062;11.722;2023-05-14T06:14:05;101497.81;;;13.77;100.00
47670;BME280;33408;52.062;11.722;2023-05-14T06:16:32;101488.94;;;13.85;100.00
47670;BME280;33408;52.062;11.722;2023-05-14T06:18:58;101488.34;;;13.71;100.00
47670;BME280;33408;52.062;11.722;2023-05-14T06:21:25;101482.91;;;13.83;100.00
47670;BME280;33408;52.062;11.722;2023-05-14T06:23:52;101487.91;;;13.94;100.00
47670;BME280;33408;52.062;11.722;2023-05-14T06:26:18;101493.53;;;14.16;100.00
47670;BME280;33408;52.062;11.722;2023-05-14T06:28:46;101484.97;;;14.10;100.00
47670;BME280;33408;52.062;11.722;2023-05-14T06:31:13;101489.13;;;14.20;100.00
47670;BME280;33408;52.062;11.722;2023-05-14T06:33:39;101494.66;;;14.44;100.00
47670;BME280;33408;52.062;11.722;2023-05-14T06:36:07;101482.75;;;14.72;100.00
47670;BME280;33408;52.062;11.722;2023-05-14T06:38:33;101483.28;;;14.87;100.00
47670;BME280;33408;52.062;11.722;2023-05-14T06:41:00;101477.69;;;15.02;100.00
47670;BME280;33408;52.062;11.722;2023-05-14T06:43:26;101474.41;;;15.60;100.00
47670;BME280;33408;52.062;11.722;2023-05-14T06:45:54;101476.81;;;15.67;100.00
47670;BME280;33408;52.062;11.722;2023-05-14T06:48:21;101474.28;;;15.64;100.00
47670;BME280;33408;52.062;11.722;2023-05-14T06:50:48;101473.16;;;15.42;100.00
47670;BME280;33408;52.062;11.722;2023-05-14T06:53:15;101473.84;;;16.11;100.00
47670;BME280;33408;52.062;11.722;2023-05-14T06:55:41;101462.31;;;16.18;100.00
47670;BME280;33408;52.062;11.722;2023-05-14T06:58:08;101463.03;;;17.07;98.98
47670;BME280;33408;52.062;11.722;2023-05-14T07:00:35;101469.63;;;16.92;99.73
47670;BME280;33408;52.062;11.722;2023-05-14T07:03:03;101463.56;;;17.17;99.14
47670;BME280;33408;52.062;11.722;2023-05-14T07:05:29;101462.13;;;17.58;96.53
47670;BME280;33408;52.062;11.722;2023-05-14T07:07:56;101462.38;;;17.25;95.94
47670;BME280;33408;52.062;11.722;2023-05-14T07:10:22;101467.72;;;17.96;95.28
47670;BME280;33408;52.062;11.722;2023-05-14T07:12:49;101452.59;;;18.49;91.40
47670;BME280;33408;52.062;11.722;2023-05-14T07:15:16;101459.72;;;18.23;89.98
47670;BME280;33408;52.062;11.722;2023-05-14T07:17:42;101450.56;;;18.11;91.12
47670;BME280;33408;52.062;11.722;2023-05-14T07:20:11;101447.28;;;18.28;92.29
47670;BME280;33408;52.062;11.722;2023-05-14T07:22:38;101447.38;;;18.25;94.99
47670;BME280;33408;52.062;11.722;2023-05-14T07:25:05;101441.16;;;18.50;93.33
47670;BME280;33408;52.062;11.722;2023-05-14T07:27:32;101437.38;;;19.20;88.13
47670;BME280;33408;52.062;11.722;2023-05-14T07:29:58;101430.63;;;18.94;88.72
47670;BME280;33408;52.062;11.722;2023-05-14T07:32:25;101430.56;;;18.95;90.19
47670;BME280;33408;52.062;11.722;2023-05-14T07:34:51;101425.13;;;19.00;89.92
47670;BME280;33408;52.062;11.722;2023-05-14T07:37:19;101424.53;;;18.93;92.04
47670;BME280;33408;52.062;11.722;2023-05-14T07:39:46;101413.50;;;18.63;92.77
47670;BME280;33408;52.062;11.722;2023-05-14T07:42:13;101415.66;;;19.56;87.06
47670;BME280;33408;52.062;11.722;2023-05-14T07:44:39;101409.09;;;19.85;83.68
47670;BME280;33408;52.062;11.722;2023-05-14T07:47:06;101413.84;;;19.77;87.70
47670;BME280;33408;52.062;11.722;2023-05-14T07:49:33;101409.34;;;18.57;94.29
47670;BME280;33408;52.062;11.722;2023-05-14T07:51:59;101414.03;;;18.93;94.79
47670;BME280;33408;52.062;11.722;2023-05-14T07:54:27;101409.34;;;19.40;94.69
47670;BME280;33408;52.062;11.722;2023-05-14T07:56:54;101402.16;;;19.45;95.18
47670;BME280;33408;52.062;11.722;2023-05-14T07:59:21;101404.84;;;19.62;93.09
47670;BME280;33408;52.062;11.722;2023-05-14T08:01:47;101410.03;;;19.45;95.69
47670;BME280;33408;52.062;11.722;2023-05-14T08:04:14;101405.22;;;19.55;95.15
47670;BME280;33408;52.062;11.722;2023-05-14T08:06:41;101402.72;;;19.71;93.83
47670;BME280;33408;52.062;11.722;2023-05-14T08:09:07;101401.44;;;19.60;90.55
47670;BME280;33408;52.062;11.722;2023-05-14T08:11:35;101395.72;;;19.90;87.39
47670;BME280;33408;52.062;11.722;2023-05-14T08:14:03;101389.72;;;20.42;79.22
47670;BME280;33408;52.062;11.722;2023-05-14T08:16:30;101376.59;;;20.23;66.77
47670;BME280;33408;52.062;11.722;2023-05-14T08:18:56;101378.16;;;20.45;61.12
47670;BME280;33408;52.062;11.722;2023-05-14T08:21:23;101377.13;;;20.84;60.82
47670;BME280;33408;52.062;11.722;2023-05-14T08:23:49;101376.69;;;20.39;62.78
47670;BME280;33408;52.062;11.722;2023-05-14T08:26:16;101372.84;;;20.64;58.68
47670;BME280;33408;52.062;11.722;2023-05-14T08:28:44;101375.69;;;20.42;58.31
47670;BME280;33408;52.062;11.722;2023-05-14T08:31:10;101376.06;;;20.34;56.94
47670;BME280;33408;52.062;11.722;2023-05-14T08:33:38;101370.00;;;20.86;57.47
47670;BME280;33408;52.062;11.722;2023-05-14T08:36:06;101369.53;;;20.95;58.36
47670;BME280;33408;52.062;11.722;2023-05-14T08:38:32;101356.34;;;21.28;53.83
47670;BME280;33408;52.062;11.722;2023-05-14T08:40:59;101363.63;;;21.23;55.44
47670;BME280;33408;52.062;11.722;2023-05-14T08:43:29;101362.31;;;20.81;55.47
47670;BME280;33408;52.062;11.722;2023-05-14T08:46:04;101362.16;;;20.84;55.93
47670;BME280;33408;52.062;11.722;2023-05-14T08:48:31;101356.47;;;21.09;56.00
47670;BME280;33408;52.062;11.722;2023-05-14T08:50:58;101361.34;;;21.33;57.10
47670;BME280;33408;52.062;11.722;2023-05-14T08:53:25;101353.94;;;21.24;53.45
47670;BME280;33408;52.062;11.722;2023-05-14T08:55:52;101344.50;;;20.51;52.42
47670;BME280;33408;52.062;11.722;2023-05-14T08:58:19;101342.47;;;20.91;51.17
47670;BME280;33408;52.062;11.722;2023-05-14T09:00:46;101343.53;;;21.05;50.66
47670;BME280;33408;52.062;11.722;2023-05-14T09:03:14;101332.16;;;21.20;47.97
47670;BME280;33408;52.062;11.722;2023-05-14T09:05:41;101330.09;;;21.09;48.02
47670;BME280;33408;52.062;11.722;2023-05-14T09:08:08;101329.38;;;20.90;46.76
47670;BME280;33408;52.062;11.722;2023-05-14T09:10:35;101322.69;;;21.00;47.13
47670;BME280;33408;52.062;11.722;2023-05-14T09:13:04;101327.31;;;21.44;47.57
47670;BME280;33408;52.062;11.722;2023-05-14T09:15:33;101317.78;;;21.26;47.48
47670;BME280;33408;52.062;11.722;2023-05-14T09:18:00;101313.69;;;21.54;46.52
47670;BME280;33408;52.062;11.722;2023-05-14T09:20:28;101309.56;;;21.96;47.14
47670;BME280;33408;52.062;11.722;2023-05-14T09:22:56;101322.34;;;21.88;48.00
47670;BME280;33408;52.062;11.722;2023-05-14T09:25:25;101319.38;;;21.62;47.59
47670;BME280;33408;52.062;11.722;2023-05-14T09:27:52;101317.03;;;21.24;45.73
47670;BME280;33408;52.062;11.722;2023-05-14T09:30:19;101302.88;;;20.93;44.08
47670;BME280;33408;52.062;11.722;2023-05-14T09:32:47;101293.84;;;21.46;48.91
47670;BME280;33408;52.062;11.722;2023-05-14T09:35:18;101289.94;;;22.16;47.95
47670;BME280;33408;52.062;11.722;2023-05-14T09:37:48;101291.50;;;22.34;44.68
47670;BME280;33408;52.062;11.722;2023-05-14T09:40:16;101286.13;;;22.36;44.92
47670;BME280;33408;52.062;11.722;2023-05-14T09:42:43;101281.75;;;22.65;43.68
47670;BME280;33408;52.062;11.722;2023-05-14T09:45:10;101275.72;;;22.63;43.61
47670;BME280;33408;52.062;11.722;2023-05-14T09:47:38;101280.91;;;21.74;43.81
47670;BME280;33408;52.062;11.722;2023-05-14T09:50:06;101275.97;;;22.58;44.25
47670;BME280;33408;52.062;11.722;2023-05-14T09:52:33;101263.78;;;21.81;43.52
47670;BME280;33408;52.062;11.722;2023-05-14T09:55:01;101269.44;;;22.05;45.85
47670;BME280;33408;52.062;11.722;2023-05-14T09:57:27;101264.00;;;22.22;44.32
47670;BME280;33408;52.062;11.722;2023-05-14T09:59:54;101257.88;;;22.67;42.76
47670;BME280;33408;52.062;11.722;2023-05-14T10:02:22;101258.47;;;22.86;43.86
47670;BME280;33408;52.062;11.722;2023-05-14T10:04:51;101256.81;;;22.55;44.88
47670;BME280;33408;52.062;11.722;2023-05-14T10:07:21;101253.28;;;21.95;43.42
47670;BME280;33408;52.062;11.722;2023-05-14T10:09:53;101251.97;;;22.33;44.87
47670;BME280;33408;52.062;11.722;2023-05-14T10:12:24;101247.00;;;21.82;44.42
47670;BME280;33408;52.062;11.722;2023-05-14T10:14:56;101254.44;;;21.75;45.50
47670;BME280;33408;52.062;11.722;2023-05-14T10:17:30;101238.16;;;22.28;44.43
47670;BME280;33408;52.062;11.722;2023-05-14T10:19:57;101239.09;;;22.71;42.91
47670;BME280;33408;52.062;11.722;2023-05-14T10:22:30;101236.63;;;21.79;43.61
47670;BME280;33408;52.062;11.722;2023-05-14T10:24:58;101227.25;;;21.73;44.75
47670;BME280;33408;52.062;11.722;2023-05-14T10:27:27;101229.94;;;21.09;43.10
47670;BME280;33408;52.062;11.722;2023-05-14T10:29:55;101230.44;;;21.16;42.71
47670;BME280;33408;52.062;11.722;2023-05-14T10:32:22;101231.34;;;20.99;44.35
47670;BME280;33408;52.062;11.722;2023-05-14T10:34:50;101221.41;;;20.88;44.04
47670;BME280;33408;52.062;11.722;2023-05-14T10:37:19;101214.03;;;21.89;42.39
47670;BME280;33408;52.062;11.722;2023-05-14T10:39:49;101202.75;;;21.71;43.88
47670;BME280;33408;52.062;11.722;2023-05-14T10:42:17;101208.81;;;22.48;44.45
47670;BME280;33408;52.062;11.722;2023-05-14T10:44:51;101216.34;;;22.54;41.38
47670;BME280;33408;52.062;11.722;2023-05-14T10:47:18;101206.25;;;22.47;39.62
47670;BME280;33408;52.062;11.722;2023-05-14T10:49:46;101208.78;;;23.47;40.65
47670;BME280;33408;52.062;11.722;2023-05-14T10:52:16;101204.25;;;23.08;39.22
47670;BME280;33408;52.062;11.722;2023-05-14T10:54:50;101192.91;;;23.20;39.41
47670;BME280;33408;52.062;11.722;2023-05-14T10:57:17;101189.00;;;23.26;39.88
47670;BME280;33408;52.062;11.722;2023-05-14T10:59:46;101198.94;;;23.49;39.25
47670;BME280;33408;52.062;11.722;2023-05-14T11:02:25;101197.00;;;23.79;40.13
47670;BME280;33408;52.062;11.722;2023-05-14T11:04:57;101197.91;;;23.92;40.66
47670;BME280;33408;52.062;11.722;2023-05-14T11:07:27;101193.16;;;23.57;41.17
47670;BME280;33408;52.062;11.722;2023-05-14T11:10:02;101193.56;;;22.95;39.61
47670;BME280;33408;52.062;11.722;2023-05-14T11:12:29;101194.34;;;22.83;41.70
47670;BME280;33408;52.062;11.722;2023-05-14T11:14:57;101190.59;;;23.28;40.05
47670;BME280;33408;52.062;11.722;2023-05-14T11:17:26;101187.16;;;23.81;39.95
47670;BME280;33408;52.062;11.722;2023-05-14T11:19:53;101185.56;;;23.38;40.23
47670;BME280;33408;52.062;11.722;2023-05-14T11:22:21;101189.88;;;23.39;39.91
47670;BME280;33408;52.062;11.722;2023-05-14T11:24:48;101186.44;;;23.52;41.22
47670;BME280;33408;52.062;11.722;2023-05-14T11:27:15;101188.59;;;23.59;40.72
47670;BME280;33408;52.062;11.722;2023-05-14T11:29:43;101194.31;;;22.97;41.43
47670;BME280;33408;52.062;11.722;2023-05-14T11:32:11;101185.75;;;22.36;42.21
47670;BME280;33408;52.062;11.722;2023-05-14T11:34:39;101180.75;;;22.60;41.29
47670;BME280;33408;52.062;11.722;2023-05-14T11:37:07;101190.13;;;22.51;41.99
47670;BME280;33408;52.062;11.722;2023-05-14T11:39:34;101187.09;;;22.43;42.08
47670;BME280;33408;52.062;11.722;2023-05-14T11:42:02;101192.16;;;22.17;42.10
47670;BME280;33408;52.062;11.722;2023-05-14T11:44:29;101187.41;;;22.08;42.00
47670;BME280;33408;52.062;11.722;2023-05-14T11:46:56;101183.66;;;22.84;41.73
47670;BME280;33408;52.062;11.722;2023-05-14T11:49:24;101187.66;;;22.34;43.45
47670;BME280;33408;52.062;11.722;2023-05-14T11:51:57;101182.72;;;22.28;43.40
47670;BME280;33408;52.062;11.722;2023-05-14T11:54:25;101183.84;;;22.09;42.54
47670;BME280;33408;52.062;11.722;2023-05-14T11:56:51;101180.31;;;22.53;42.12
47670;BME280;33408;52.062;11.722;2023-05-14T11:59:19;101175.28;;;22.34;41.69
47670;BME280;33408;52.062;11.722;2023-05-14T12:01:46;101171.47;;;22.10;41.19
47670;BME280;33408;52.062;11.722;2023-05-14T12:04:12;101180.41;;;22.07;42.55
47670;BME280;33408;52.062;11.722;2023-05-14T12:06:39;101175.97;;;22.38;42.30
47670;BME280;33408;52.062;11.722;2023-05-14T12:09:07;101175.44;;;22.17;42.55
47670;BME280;33408;52.062;11.722;2023-05-14T12:11:35;101177.16;;;21.88;43.14
47670;BME280;33408;52.062;11.722;2023-05-14T12:14:09;101181.56;;;22.03;43.36
47670;BME280;33408;52.062;11.722;2023-05-14T12:16:38;101172.84;;;21.87;43.42
47670;BME280;33408;52.062;11.722;2023-05-14T12:19:07;101172.09;;;21.99;43.41
47670;BME280;33408;52.062;11.722;2023-05-14T12:21:34;101171.09;;;21.71;42.92
47670;BME280;33408;52.062;11.722;2023-05-14T12:24:01;101168.47;;;21.71;43.51
47670;BME280;33408;52.062;11.722;2023-05-14T12:26:31;101169.47;;;21.54;43.37
47670;BME280;33408;52.062;11.722;2023-05-14T12:28:59;101167.47;;;21.42;44.31
47670;BME280;33408;52.062;11.722;2023-05-14T12:31:29;101169.31;;;21.72;44.57
47670;BME280;33408;52.062;11.722;2023-05-14T12:33:56;101158.56;;;21.75;44.74
47670;BME280;33408;52.062;11.722;2023-05-14T12:36:23;101166.84;;;21.68;46.17